Terminal Aerodrome Forecast
Issued by NWS

Home | Current Version | Previous Version | Text Only | Print | Product List | Glossary Off
Versions: 1 2 3 4 5 6 7 8 9 10 11 12 13 14 15 16 17 18 19 20 21

424
FTUS43 KGRB 292046 AAA
TAFMTW
TAF AMD
KMTW 292046Z 2921/3018 03012G18KT P6SM SCT015
      TEMPO 2921/2924 BKN015
     FM300200 04010KT P6SM SCT100
     FM300700 04008KT P6SM BKN020
     FM301200 04012G21KT P6SM OVC012 PROB30 3012/3018 3SM -SHRA
      OVC006=

USA.gov is the U.S. government's official web portal to all federal, state and local government web resources and services.